LYBE - BEOGRAD / NIKOLA TESLA

Compiled: 17:51:05 on 22/07/2018

Latest METAR/SPECI Reports

METAR LYBE 221730Z 02005KT CAVOK 25/17 Q1009 NOSIG=

Previous reports

METAR LYBE 221700Z 11002KT CAVOK 26/15 Q1009 NOSIG=
METAR LYBE 221630Z 06004KT CAVOK 26/15 Q1008 NOSIG=
METAR LYBE 221600Z 05004KT 020V080 CAVOK 26/15 Q1008 NOSIG=
METAR LYBE 221530Z 07008KT CAVOK 26/15 Q1009 NOSIG=

Latest TAF report

TAF LYBE 221700Z 2218/2318 03005KT 9999 SCT040 TX26/2218Z TN17/2303Z BECMG 2219/2221 35010KT TEMPO 2219/2301 33015G35KT 3000 TSRA SCT013 BKN030CB TEMPO 2301/2308 5000 SHRA SCT010 BKN033TCU TEMPO 2308/2318 32015G30KT 2000 TSRA SCT007 BKN027CB=

Valid WARNINGS

No valid warnings for LYBE